Time;durP1;ratioP1;P1;durP2;ratioP2;P2;SDS_P1;SDS_P2;PMS_P1;PMS_P2;Temp;Humidity;BMP_temperature;BMP_pressure;BME280_temperature;BME280_humidity;BME280_pressure;Samples;Min_cycle;Max_cycle;Signal;HPM_P1;HPM_P2
2024/01/24 00:09:56;;;;;;;24.30;8.30;;;;;;;6.05;94.29;100584.16;682054;1265;138991;-84
2024/01/24 00:25:00;;;;;;;19.60;6.10;;;;;;;6.02;93.50;100572.88;681699;1262;139180;-84
2024/01/24 00:40:05;;;;;;;32.90;8.20;;;;;;;5.91;93.64;100553.95;681863;1265;139279;-85
2024/01/24 00:55:10;;;;;;;24.60;7.60;;;;;;;5.66;93.61;100487.15;681974;1265;139345;-87
2024/01/24 01:10:13;;;;;;;22.90;7.80;;;;;;;5.53;93.39;100450.84;681939;1264;138841;-84
2024/01/24 01:25:17;;;;;;;29.40;7.90;;;;;;;5.06;93.22;100402.67;681761;1265;139607;-83
2024/01/24 01:40:22;;;;;;;24.20;7.80;;;;;;;5.02;94.28;100403.23;681788;1265;139323;-84
2024/01/24 01:55:26;;;;;;;25.30;10.30;;;;;;;5.01;94.47;100368.48;681812;1265;140560;-89
2024/01/24 02:10:30;;;;;;;22.00;9.10;;;;;;;5.16;94.52;100308.22;681755;1266;140376;-84
2024/01/24 02:25:34;;;;;;;20.80;7.40;;;;;;;5.16;94.48;100254.50;681932;1264;138982;-85
2024/01/24 02:40:37;;;;;;;20.30;7.60;;;;;;;5.05;94.15;100206.13;681956;1266;138819;-84
2024/01/24 02:55:41;;;;;;;28.30;7.80;;;;;;;5.12;93.41;100138.08;681704;1266;139667;-85
2024/01/24 03:10:45;;;;;;;21.00;7.60;;;;;;;5.13;92.69;100090.63;682046;1265;142094;-86
2024/01/24 03:25:48;;;;;;;21.50;7.90;;;;;;;5.11;91.52;100050.42;681830;1265;139829;-84
2024/01/24 03:40:52;;;;;;;26.70;7.10;;;;;;;5.02;91.79;100006.84;681835;1265;140480;-85
2024/01/24 03:55:56;;;;;;;20.60;6.30;;;;;;;5.01;90.79;99970.70;681897;1263;139597;-84
2024/01/24 04:10:59;;;;;;;20.00;7.10;;;;;;;5.11;90.17;99934.42;682102;1264;139370;-84
2024/01/24 04:26:06;;;;;;;20.30;6.00;;;;;;;5.23;88.34;99907.06;681715;1264;139889;-84
2024/01/24 04:41:10;;;;;;;23.80;7.60;;;;;;;5.23;88.37;99853.69;682049;1265;139405;-84
2024/01/24 04:56:14;;;;;;;22.70;7.20;;;;;;;4.98;90.86;99784.73;681945;1266;138769;-86
2024/01/24 05:11:19;;;;;;;24.30;7.10;;;;;;;4.80;94.82;99722.30;682010;1265;139698;-84
2024/01/24 05:26:23;;;;;;;17.20;6.50;;;;;;;4.61;98.73;99673.73;681787;1266;139061;-88
2024/01/24 05:41:27;;;;;;;22.40;7.10;;;;;;;4.30;100.00;99620.56;681634;1270;139427;-85
2024/01/24 05:56:30;;;;;;;19.90;7.40;;;;;;;4.14;100.00;99547.47;681814;1266;139523;-87
2024/01/24 06:11:35;;;;;;;15.30;6.00;;;;;;;4.15;100.00;99479.23;682058;1266;138889;-87
2024/01/24 06:26:39;;;;;;;19.40;6.70;;;;;;;4.11;100.00;99436.58;681833;1266;139289;-84
2024/01/24 06:41:44;;;;;;;23.50;8.80;;;;;;;4.08;100.00;99405.33;681985;1266;139315;-87
2024/01/24 06:56:48;;;;;;;20.90;7.90;;;;;;;4.13;100.00;99344.33;681584;1266;139390;-89
2024/01/24 07:11:52;;;;;;;20.70;9.00;;;;;;;4.52;100.00;99307.23;681608;1264;139110;-87
2024/01/24 07:26:56;;;;;;;18.60;9.10;;;;;;;4.93;100.00;99260.72;681157;1266;141142;-88
2024/01/24 07:41:59;;;;;;;16.60;7.80;;;;;;;5.07;100.00;99226.81;681622;1263;138854;-87
2024/01/24 07:57:04;;;;;;;13.40;8.10;;;;;;;5.23;100.00;99197.42;681327;1266;139068;-84
2024/01/24 08:12:08;;;;;;;12.30;7.70;;;;;;;5.54;100.00;99176.83;681663;1264;139708;-86
2024/01/24 08:27:19;;;;;;;13.70;7.80;;;;;;;5.66;100.00;99158.29;681363;1265;139053;-86
2024/01/24 08:42:25;;;;;;;13.30;7.90;;;;;;;6.05;100.00;99116.11;681695;1266;138816;-83
2024/01/24 08:57:30;;;;;;;43.80;25.70;;;;;;;6.30;100.00;99075.27;681551;1265;139897;-84
2024/01/24 09:12:34;;;;;;;24.90;13.80;;;;;;;6.53;100.00;99059.46;681405;1261;139649;-84
2024/01/24 09:27:39;;;;;;;12.60;7.10;;;;;;;6.86;100.00;99032.48;681625;1266;139288;-84
2024/01/24 09:42:44;;;;;;;64.40;28.20;;;;;;;7.14;100.00;99008.46;681618;1266;139416;-83
2024/01/24 09:57:51;;;;;;;34.70;17.60;;;;;;;7.53;100.00;98995.42;681545;1267;139760;-86
2024/01/24 10:12:56;;;;;;;23.80;15.20;;;;;;;7.78;100.00;98974.44;681518;1263;139167;-85
2024/01/24 10:28:01;;;;;;;31.20;15.50;;;;;;;7.97;100.00;98966.96;681659;1266;140028;-86
2024/01/24 10:43:12;;;;;;;14.00;8.60;;;;;;;8.40;100.00;98955.42;681514;1264;140978;-85
2024/01/24 10:58:19;;;;;;;20.30;10.70;;;;;;;8.78;100.00;98959.48;681643;1262;140130;-85
2024/01/24 11:13:23;;;;;;;13.30;8.40;;;;;;;9.25;100.00;98959.77;681714;1265;140884;-87
2024/01/24 11:28:28;;;;;;;21.10;15.10;;;;;;;9.81;100.00;98945.92;681486;1263;139323;-85
2024/01/24 11:43:34;;;;;;;58.20;23.40;;;;;;;9.94;100.00;98938.83;681723;1265;140274;-85
2024/01/24 11:58:42;;;;;;;29.80;15.90;;;;;;;10.20;100.00;98928.85;681521;1262;139889;-86
2024/01/24 12:13:47;;;;;;;21.10;7.40;;;;;;;11.15;100.00;98932.02;681962;1265;139514;-84
2024/01/24 12:28:51;;;;;;;35.80;13.60;;;;;;;10.82;100.00;98937.30;681823;1262;140243;-86
2024/01/24 12:43:57;;;;;;;67.50;31.50;;;;;;;10.80;100.00;98896.73;682104;1262;139134;-86
2024/01/24 12:59:01;;;;;;;24.20;10.50;;;;;;;11.14;100.00;98926.92;681764;1263;139344;-86
2024/01/24 13:14:06;;;;;;;21.00;7.10;;;;;;;11.41;100.00;98909.51;681991;1262;140010;-81
2024/01/24 13:29:11;;;;;;;20.50;7.90;;;;;;;11.29;100.00;98909.64;681932;1265;139411;-80
2024/01/24 13:44:18;;;;;;;28.30;7.80;;;;;;;11.29;99.76;98909.41;682005;1263;139084;-81
2024/01/24 13:59:22;;;;;;;47.40;20.60;;;;;;;11.03;98.01;98918.08;681921;1262;140399;-82
2024/01/24 14:14:26;;;;;;;63.00;24.80;;;;;;;10.88;97.99;98946.52;682340;1265;140194;-82
2024/01/24 14:29:37;;;;;;;46.50;19.50;;;;;;;10.46;98.76;98965.64;682032;1262;139902;-81
2024/01/24 14:44:40;;;;;;;34.50;10.20;;;;;;;10.12;99.64;98957.52;681932;1265;140951;-82
2024/01/24 14:59:44;;;;;;;33.20;16.30;;;;;;;9.96;100.00;98955.77;682135;1261;140575;-81
2024/01/24 15:14:48;;;;;;;47.30;18.90;;;;;;;9.99;100.00;98965.75;682026;1266;139301;-80
2024/01/24 15:29:54;;;;;;;34.20;11.90;;;;;;;9.84;100.00;98967.84;682084;1265;139810;-81
2024/01/24 15:44:58;;;;;;;24.00;9.10;;;;;;;9.98;100.00;98962.02;681902;1262;139022;-82
2024/01/24 16:00:10;;;;;;;26.90;9.00;;;;;;;9.95;100.00;98972.79;682165;1260;140482;-82
2024/01/24 16:15:14;;;;;;;27.70;9.60;;;;;;;10.03;100.00;98980.69;681987;1263;139084;-81
2024/01/24 16:30:20;;;;;;;14.20;5.00;;;;;;;9.88;99.89;98989.42;681895;1262;140354;-82
2024/01/24 16:45:25;;;;;;;52.30;24.60;;;;;;;9.82;100.00;98990.33;682063;1265;139573;-82
2024/01/24 17:00:34;;;;;;;35.00;11.10;;;;;;;9.65;100.00;99002.11;682113;1265;139943;-82
2024/01/24 17:15:38;;;;;;;17.60;6.70;;;;;;;9.52;100.00;98992.58;681878;1265;140979;-81
2024/01/24 17:30:42;;;;;;;21.40;9.60;;;;;;;9.51;100.00;98995.38;681981;1265;140220;-83
2024/01/24 17:45:47;;;;;;;23.40;9.30;;;;;;;9.57;100.00;98993.89;681858;1264;139956;-81
2024/01/24 18:00:52;;;;;;;24.30;9.60;;;;;;;9.62;100.00;98984.45;682046;1266;139126;-82
2024/01/24 18:15:58;;;;;;;19.40;7.70;;;;;;;9.50;100.00;98973.45;681765;1266;139578;-82
2024/01/24 18:31:03;;;;;;;41.90;15.50;;;;;;;9.31;100.00;98979.32;681966;1266;140028;-82
2024/01/24 18:46:08;;;;;;;30.20;10.50;;;;;;;9.33;100.00;98984.64;681757;1265;139094;-82
2024/01/24 19:01:13;;;;;;;15.40;5.30;;;;;;;9.24;100.00;98979.30;681831;1266;140217;-84
2024/01/24 19:16:17;;;;;;;18.60;8.70;;;;;;;9.21;100.00;98977.61;681839;1265;139854;-84
2024/01/24 19:31:21;;;;;;;23.70;8.80;;;;;;;9.13;100.00;98968.47;681888;1266;150868;-82
2024/01/24 19:46:25;;;;;;;12.20;5.10;;;;;;;9.04;100.00;98974.39;681787;1265;139709;-82
2024/01/24 20:01:31;;;;;;;15.80;5.60;;;;;;;9.05;100.00;98974.04;681984;1266;139410;-81
2024/01/24 20:16:35;;;;;;;16.30;6.10;;;;;;;9.13;100.00;98982.27;681646;1265;140826;-81
2024/01/24 20:31:38;;;;;;;35.20;13.60;;;;;;;9.20;100.00;98987.57;681823;1274;139192;-82
2024/01/24 20:46:42;;;;;;;18.60;6.80;;;;;;;9.24;100.00;98983.65;681414;1265;140036;-83
2024/01/24 21:01:46;;;;;;;18.20;6.40;;;;;;;9.05;100.00;98985.26;681666;1265;139743;-83
2024/01/24 21:16:51;;;;;;;16.80;6.40;;;;;;;8.95;100.00;98998.08;681597;1264;140523;-84
2024/01/24 21:31:55;;;;;;;17.70;8.50;;;;;;;9.00;100.00;99003.63;681738;1266;139251;-84
2024/01/24 21:47:00;;;;;;;10.20;4.50;;;;;;;9.02;100.00;99019.73;681787;1263;139908;-81
2024/01/24 22:02:04;;;;;;;9.60;2.70;;;;;;;8.98;100.00;99025.67;681883;1266;139903;-82
2024/01/24 22:17:08;;;;;;;14.00;5.70;;;;;;;8.87;100.00;99033.77;681683;1265;139913;-83
2024/01/24 22:32:13;;;;;;;12.90;4.00;;;;;;;8.65;100.00;99028.27;681959;1265;138843;-82
2024/01/24 22:47:20;;;;;;;14.80;5.30;;;;;;;8.58;100.00;99006.02;681650;1276;140309;-82
2024/01/24 23:02:24;;;;;;;9.60;3.40;;;;;;;8.55;100.00;99020.64;681899;1263;139465;-81
2024/01/24 23:17:28;;;;;;;10.90;3.30;;;;;;;8.54;100.00;99037.74;681876;1266;140834;-82
2024/01/24 23:32:32;;;;;;;16.10;3.50;;;;;;;8.38;100.00;99051.81;681887;1267;139511;-82
2024/01/24 23:47:36;;;;;;;16.30;3.60;;;;;;;8.33;100.00;99054.21;681846;1266;138967;-83
